createdAt,value
2019-03-08T00:00:31.748Z,16.62
2019-03-08T00:01:31.730Z,16.67
2019-03-08T00:02:31.767Z,16.73
2019-03-08T00:03:31.703Z,16.82
2019-03-08T00:04:31.693Z,16.74
2019-03-08T00:05:31.682Z,16.79
2019-03-08T00:06:31.677Z,16.57
2019-03-08T00:07:31.664Z,16.39
2019-03-08T00:08:31.706Z,16.33
2019-03-08T00:09:31.642Z,16.24
2019-03-08T00:10:31.631Z,16.07
2019-03-08T00:11:31.615Z,15.99
2019-03-08T00:12:31.610Z,15.76
2019-03-08T00:13:31.598Z,15.61
2019-03-08T00:14:31.735Z,15.63
2019-03-08T00:15:31.576Z,15.56
2019-03-08T00:16:31.563Z,15.57
2019-03-08T00:17:31.558Z,15.44
2019-03-08T00:18:31.543Z,15.52
2019-03-08T00:19:31.533Z,15.66
2019-03-08T00:20:31.571Z,15.70
2019-03-08T00:21:31.516Z,15.67
2019-03-08T00:22:31.503Z,15.48
2019-03-08T00:23:31.492Z,15.49
2019-03-08T00:24:31.482Z,15.45
2019-03-08T00:25:31.473Z,15.57
2019-03-08T00:26:31.563Z,15.70
2019-03-08T00:27:31.452Z,15.60
2019-03-08T00:28:31.436Z,15.38
2019-03-08T00:29:31.431Z,15.37
2019-03-08T00:30:31.416Z,15.20
2019-03-08T00:31:31.403Z,14.53
2019-03-08T00:32:31.790Z,13.75
2019-03-08T00:33:31.381Z,13.06
2019-03-08T00:34:31.372Z,12.95
2019-03-08T00:35:31.363Z,12.79
2019-03-08T00:36:31.384Z,12.63
2019-03-08T00:37:31.346Z,12.58
2019-03-08T00:38:31.372Z,12.87
2019-03-08T00:39:31.315Z,13.11
2019-03-08T00:40:31.304Z,13.51
2019-03-08T00:41:31.298Z,13.83
2019-03-08T00:42:31.291Z,14.17
2019-03-08T00:43:31.273Z,14.38
2019-03-08T00:44:31.364Z,14.50
2019-03-08T00:45:31.249Z,14.67
2019-03-08T00:46:31.243Z,14.77
2019-03-08T00:47:31.234Z,14.80
2019-03-08T00:48:31.216Z,15.08
2019-03-08T00:49:31.211Z,15.86
2019-03-08T00:50:31.445Z,16.30
2019-03-08T00:51:31.188Z,16.52
2019-03-08T00:52:33.001Z,16.49
2019-03-08T00:53:31.168Z,16.37
2019-03-08T00:54:31.157Z,15.99
2019-03-08T00:55:31.141Z,15.67
2019-03-08T00:56:31.231Z,15.45
2019-03-08T00:57:31.124Z,15.12
2019-03-08T00:58:31.115Z,14.80
2019-03-08T00:59:31.103Z,14.37
2019-03-08T01:00:31.093Z,14.16
2019-03-08T01:01:31.080Z,14.00
2019-03-08T01:02:31.171Z,13.93
2019-03-08T01:03:31.059Z,14.01
2019-03-08T01:04:31.051Z,13.87
2019-03-08T01:05:31.036Z,13.55
2019-03-08T01:06:31.028Z,13.30
2019-03-08T01:07:31.015Z,12.97
2019-03-08T01:08:31.253Z,12.85
2019-03-08T01:09:30.992Z,12.55
2019-03-08T01:10:30.985Z,12.41
2019-03-08T01:11:30.972Z,12.28
2019-03-08T01:12:30.964Z,12.38
2019-03-08T01:13:30.953Z,12.59
2019-03-08T01:14:30.992Z,12.53
2019-03-08T01:15:30.930Z,12.40
2019-03-08T01:16:30.917Z,12.43
2019-03-08T01:17:30.907Z,12.14
2019-03-08T01:18:30.893Z,11.53
2019-03-08T01:19:30.893Z,11.00
2019-03-08T01:20:30.976Z,10.72
2019-03-08T01:21:30.863Z,10.64
2019-03-08T01:22:30.851Z,10.57
2019-03-08T01:23:30.850Z,10.59
2019-03-08T01:24:30.834Z,10.65
2019-03-08T01:25:30.819Z,10.61
2019-03-08T01:26:30.960Z,10.52
2019-03-08T01:27:30.800Z,10.44
2019-03-08T01:28:30.793Z,10.44
2019-03-08T01:29:30.778Z,10.57
2019-03-08T01:30:30.767Z,10.64
2019-03-08T01:31:30.761Z,10.80
2019-03-08T01:32:30.846Z,10.90
2019-03-08T01:33:30.739Z,10.95
2019-03-08T01:34:30.724Z,10.91
2019-03-08T01:35:30.718Z,10.98
2019-03-08T01:36:30.706Z,12.04
2019-03-08T01:37:30.691Z,13.45
2019-03-08T01:38:30.730Z,14.56
2019-03-08T01:39:30.671Z,15.26
2019-03-08T01:40:30.659Z,15.18
2019-03-08T01:41:30.649Z,14.77
2019-03-08T01:42:30.642Z,14.10
2019-03-08T01:43:30.629Z,13.50
2019-03-08T01:44:30.769Z,13.14
2019-03-08T01:45:30.605Z,13.02
2019-03-08T01:46:30.598Z,12.84
2019-03-08T01:47:30.580Z,12.66
2019-03-08T01:48:30.572Z,12.43
2019-03-08T01:49:30.559Z,12.45
2019-03-08T01:50:30.650Z,12.15
2019-03-08T01:51:30.545Z,11.47
2019-03-08T01:52:30.533Z,10.90
2019-03-08T01:53:30.518Z,10.67
2019-03-08T01:54:30.511Z,10.61
2019-03-08T01:55:30.501Z,10.36
2019-03-08T01:56:30.587Z,9.93
2019-03-08T01:57:30.478Z,9.63
2019-03-08T01:58:30.467Z,9.23
2019-03-08T01:59:30.458Z,9.29
2019-03-08T02:00:30.448Z,9.27
2019-03-08T02:01:30.436Z,9.09
2019-03-08T02:02:30.629Z,9.01
2019-03-08T02:03:30.415Z,9.01
2019-03-08T02:04:30.402Z,8.94
2019-03-08T02:05:30.395Z,8.60
2019-03-08T02:06:30.376Z,8.58
2019-03-08T02:07:30.375Z,8.45
2019-03-08T02:08:30.417Z,8.47
2019-03-08T02:09:30.349Z,8.72
2019-03-08T02:10:30.340Z,8.88
2019-03-08T02:11:30.327Z,9.27
2019-03-08T02:12:30.319Z,9.75
2019-03-08T02:13:30.307Z,10.10
2019-03-08T02:14:30.398Z,10.34
2019-03-08T02:15:30.290Z,10.46
2019-03-08T02:16:30.274Z,10.83
2019-03-08T02:17:30.261Z,11.47
2019-03-08T02:18:30.254Z,12.40
2019-03-08T02:19:30.247Z,13.27
2019-03-08T02:20:30.629Z,13.93
2019-03-08T02:21:30.220Z,14.47
2019-03-08T02:22:30.209Z,15.00
2019-03-08T02:23:30.194Z,15.04
2019-03-08T02:24:30.190Z,15.05
2019-03-08T02:25:30.175Z,15.05
2019-03-08T02:26:30.215Z,14.93
2019-03-08T02:27:30.150Z,14.80
2019-03-08T02:28:30.146Z,14.80
2019-03-08T02:29:30.131Z,14.85
2019-03-08T02:30:30.122Z,15.01
2019-03-08T02:31:30.108Z,15.26
2019-03-08T02:32:30.203Z,15.48
2019-03-08T02:33:30.091Z,15.61
2019-03-08T02:34:30.080Z,15.85
2019-03-08T02:35:30.067Z,15.38
2019-03-08T02:36:30.055Z,14.83
2019-03-08T02:37:30.045Z,14.34
2019-03-08T02:38:30.184Z,13.70
2019-03-08T02:39:30.022Z,13.90
2019-03-08T02:40:30.012Z,14.43
2019-03-08T02:41:30.002Z,14.87
2019-03-08T02:42:29.989Z,15.44
2019-03-08T02:43:29.977Z,16.44
2019-03-08T02:44:30.017Z,17.40
2019-03-08T02:45:29.955Z,18.20
2019-03-08T02:46:29.947Z,18.79
2019-03-08T02:47:29.937Z,19.27
2019-03-08T02:48:29.920Z,19.62
2019-03-08T02:49:30.011Z,19.90
2019-03-08T02:50:29.905Z,19.97
2019-03-08T02:51:29.888Z,19.84
2019-03-08T02:52:29.880Z,19.83
2019-03-08T02:53:29.869Z,19.57
2019-03-08T02:54:30.010Z,18.79
2019-03-08T02:55:29.852Z,17.81
2019-03-08T02:56:29.839Z,17.33
2019-03-08T02:57:29.828Z,16.59
2019-03-08T02:58:29.825Z,16.37
2019-03-08T02:59:29.801Z,16.15
2019-03-08T03:00:29.899Z,16.03
2019-03-08T03:01:29.784Z,16.51
2019-03-08T03:02:29.774Z,16.90
2019-03-08T03:03:29.760Z,17.38
2019-03-08T03:04:29.750Z,17.75
2019-03-08T03:05:29.745Z,17.78
2019-03-08T03:06:29.833Z,17.93
2019-03-08T03:07:29.720Z,18.01
2019-03-08T03:08:29.706Z,18.21
2019-03-08T03:09:29.700Z,18.36
2019-03-08T03:10:29.685Z,18.58
2019-03-08T03:11:29.677Z,18.59
2019-03-08T03:12:29.817Z,18.77
2019-03-08T03:13:29.654Z,18.82
2019-03-08T03:14:29.644Z,18.90
2019-03-08T03:15:29.627Z,18.87
2019-03-08T03:16:29.619Z,18.87
2019-03-08T03:17:29.611Z,18.91
2019-03-08T03:18:29.697Z,19.07
2019-03-08T03:19:29.587Z,19.02
2019-03-08T03:20:29.579Z,18.87
2019-03-08T03:21:29.566Z,18.73
2019-03-08T03:22:29.554Z,18.39
2019-03-08T03:23:29.543Z,18.17
2019-03-08T03:24:29.588Z,18.02
2019-03-08T03:25:29.527Z,18.03
2019-03-08T03:26:29.512Z,18.36
2019-03-08T03:27:29.500Z,18.46
2019-03-08T03:28:29.495Z,18.39
2019-03-08T03:29:29.488Z,18.59
2019-03-08T03:30:29.623Z,18.62
2019-03-08T03:31:29.463Z,18.44
2019-03-08T03:32:29.444Z,18.26
2019-03-08T03:33:29.439Z,18.08
2019-03-08T03:34:29.428Z,17.98
2019-03-08T03:35:29.420Z,17.96
2019-03-08T03:36:29.462Z,18.09
2019-03-08T03:37:29.396Z,18.20
2019-03-08T03:38:29.386Z,18.44
2019-03-08T03:39:29.375Z,18.61
2019-03-08T03:40:29.365Z,19.01
2019-03-08T03:41:29.355Z,19.10
2019-03-08T03:42:30.195Z,19.20
2019-03-08T03:43:29.335Z,19.24
2019-03-08T03:44:29.323Z,19.69
2019-03-08T03:45:29.310Z,20.28
2019-03-08T03:46:29.297Z,20.97
2019-03-08T03:47:29.288Z,21.53
2019-03-08T03:48:29.483Z,21.82
2019-03-08T03:49:29.268Z,22.01
2019-03-08T03:50:29.258Z,22.26
2019-03-08T03:51:29.248Z,22.31
2019-03-08T03:52:29.239Z,22.49
2019-03-08T03:53:29.229Z,22.48
2019-03-08T03:54:29.269Z,22.55
2019-03-08T03:55:29.204Z,22.78
2019-03-08T03:56:29.193Z,22.80
2019-03-08T03:57:29.187Z,23.12
2019-03-08T03:58:29.175Z,23.29
2019-03-08T03:59:29.164Z,23.41
2019-03-08T04:00:29.257Z,23.48
2019-03-08T04:01:29.146Z,23.60
2019-03-08T04:02:29.132Z,23.61
2019-03-08T04:03:29.121Z,23.63
2019-03-08T04:04:29.114Z,23.85
2019-03-08T04:05:29.101Z,24.14
2019-03-08T04:06:29.490Z,24.10
2019-03-08T04:07:29.078Z,24.08
2019-03-08T04:08:29.069Z,23.99
2019-03-08T04:09:29.060Z,24.12
2019-03-08T04:10:29.047Z,24.37
2019-03-08T04:11:29.037Z,24.60
2019-03-08T04:12:29.074Z,24.79
2019-03-08T04:13:29.017Z,25.04
2019-03-08T04:14:29.002Z,25.29
2019-03-08T04:15:28.992Z,25.24
2019-03-08T04:16:28.980Z,25.50
2019-03-08T04:17:28.985Z,25.77
2019-03-08T04:18:29.008Z,25.75
2019-03-08T04:19:28.954Z,25.97
2019-03-08T04:20:28.939Z,26.09
2019-03-08T04:21:28.931Z,26.11
2019-03-08T04:22:28.923Z,26.23
2019-03-08T04:23:29.014Z,26.27
2019-03-08T04:24:28.902Z,26.26
2019-03-08T04:25:28.891Z,26.11
2019-03-08T04:26:28.877Z,26.24
2019-03-08T04:27:28.871Z,26.34
2019-03-08T04:28:29.107Z,26.30
2019-03-08T04:29:28.850Z,26.17
2019-03-08T04:30:28.840Z,26.01
2019-03-08T04:31:28.829Z,25.89
2019-03-08T04:32:28.818Z,25.75
2019-03-08T04:33:28.799Z,25.77
2019-03-08T04:34:28.847Z,25.72
2019-03-08T04:35:28.785Z,25.74
2019-03-08T04:36:30.287Z,25.67
2019-03-08T04:37:28.759Z,25.62
2019-03-08T04:38:28.751Z,25.65
2019-03-08T04:39:28.744Z,25.59
2019-03-08T04:40:28.779Z,25.62
2019-03-08T04:41:28.713Z,25.67
2019-03-08T04:42:28.706Z,25.57
2019-03-08T04:43:28.703Z,25.44
2019-03-08T04:44:28.690Z,25.11
2019-03-08T04:45:29.078Z,25.12
2019-03-08T04:46:28.671Z,25.00
2019-03-08T04:47:28.652Z,24.97
2019-03-08T04:48:28.647Z,24.93
2019-03-08T04:49:28.635Z,24.94
2019-03-08T04:50:28.625Z,24.93
2019-03-08T04:51:28.716Z,24.87
2019-03-08T04:52:28.604Z,24.82
2019-03-08T04:53:28.593Z,24.76
2019-03-08T04:54:28.587Z,24.84
2019-03-08T04:55:28.578Z,24.74
2019-03-08T04:56:28.660Z,24.82
2019-03-08T04:57:28.549Z,24.71
2019-03-08T04:58:28.540Z,24.47
2019-03-08T04:59:28.527Z,24.29
2019-03-08T05:00:28.516Z,24.23
2019-03-08T05:01:28.505Z,24.16
2019-03-08T05:02:28.542Z,24.34
2019-03-08T05:03:28.490Z,24.56
2019-03-08T05:04:28.479Z,24.60
2019-03-08T05:05:28.466Z,24.91
2019-03-08T05:06:28.456Z,24.91
2019-03-08T05:07:28.448Z,25.08
2019-03-08T05:08:28.479Z,25.15
2019-03-08T05:09:28.421Z,25.18
2019-03-08T05:10:28.412Z,25.26
2019-03-08T05:11:28.405Z,25.29
2019-03-08T05:12:28.390Z,25.30
2019-03-08T05:13:28.531Z,25.15
2019-03-08T05:14:28.367Z,24.99
2019-03-08T05:15:28.360Z,24.96
2019-03-08T05:16:28.353Z,24.67
2019-03-08T05:17:28.338Z,24.22
2019-03-08T05:18:28.333Z,23.76
2019-03-08T05:19:28.418Z,23.51
2019-03-08T05:20:28.309Z,23.31
2019-03-08T05:21:28.297Z,23.45
2019-03-08T05:22:28.291Z,23.42
2019-03-08T05:23:28.276Z,23.30
2019-03-08T05:24:28.265Z,23.15
2019-03-08T05:25:28.310Z,22.90
2019-03-08T05:26:28.239Z,22.77
2019-03-08T05:27:28.232Z,22.82
2019-03-08T05:28:28.220Z,22.72
2019-03-08T05:29:28.216Z,22.65
2019-03-08T05:30:28.204Z,22.65
2019-03-08T05:31:28.343Z,22.48
2019-03-08T05:32:28.185Z,22.48
2019-03-08T05:33:28.167Z,22.45
2019-03-08T05:34:28.158Z,22.38
2019-03-08T05:35:28.149Z,22.46
2019-03-08T05:36:28.137Z,22.46
2019-03-08T05:37:28.178Z,22.48
2019-03-08T05:38:28.124Z,22.46
2019-03-08T05:39:28.103Z,22.48
2019-03-08T05:40:28.100Z,22.52
2019-03-08T05:41:28.085Z,22.51
2019-03-08T05:42:28.080Z,22.38
2019-03-08T05:43:28.113Z,22.48
2019-03-08T05:44:28.055Z,22.37
2019-03-08T05:45:28.043Z,22.34
2019-03-08T05:46:28.043Z,22.30
2019-03-08T05:47:28.021Z,22.21
2019-03-08T05:48:28.012Z,22.18
2019-03-08T05:49:28.103Z,22.13
2019-03-08T05:50:28.014Z,22.19
2019-03-08T05:51:28.022Z,22.19
2019-03-08T05:52:27.969Z,22.31
2019-03-08T05:53:27.957Z,22.22
2019-03-08T05:54:27.944Z,22.30
2019-03-08T05:55:27.990Z,22.31
2019-03-08T05:56:27.958Z,22.28
2019-03-08T05:57:27.919Z,22.27
2019-03-08T05:58:27.902Z,22.08
2019-03-08T05:59:27.890Z,21.87
2019-03-08T06:00:32.063Z,21.46
2019-03-08T06:01:29.169Z,20.98
2019-03-08T06:02:27.868Z,20.97
2019-03-08T06:03:27.853Z,20.90
2019-03-08T06:04:27.838Z,20.95
2019-03-08T06:05:27.833Z,21.03
2019-03-08T06:06:27.820Z,21.21
2019-03-08T06:07:27.907Z,21.21
2019-03-08T06:08:27.794Z,21.35
2019-03-08T06:09:27.786Z,21.41
2019-03-08T06:10:27.782Z,21.56
2019-03-08T06:11:27.766Z,21.54
2019-03-08T06:12:27.756Z,21.60
2019-03-08T06:13:27.844Z,21.69
2019-03-08T06:14:27.743Z,21.75
2019-03-08T06:15:27.731Z,21.74
2019-03-08T06:16:27.713Z,21.90
2019-03-08T06:17:27.703Z,21.85
2019-03-08T06:18:27.690Z,21.83
2019-03-08T06:19:27.929Z,21.67
2019-03-08T06:20:27.668Z,21.36
2019-03-08T06:21:27.659Z,21.30
2019-03-08T06:22:27.645Z,20.94
2019-03-08T06:23:27.637Z,20.71
2019-03-08T06:24:27.626Z,20.42
2019-03-08T06:25:27.667Z,20.30
2019-03-08T06:26:27.607Z,20.08
2019-03-08T06:27:27.594Z,20.00
2019-03-08T06:28:27.580Z,19.80
2019-03-08T06:29:27.567Z,19.54
2019-03-08T06:30:27.556Z,19.79
2019-03-08T06:31:27.599Z,19.78
2019-03-08T06:32:27.538Z,19.52
2019-03-08T06:33:27.526Z,19.31
2019-03-08T06:34:27.513Z,19.16
2019-03-08T06:35:27.508Z,19.09
2019-03-08T06:36:27.496Z,18.91
2019-03-08T06:37:27.639Z,18.77
2019-03-08T06:38:27.474Z,18.79
2019-03-08T06:39:27.465Z,18.74
2019-03-08T06:40:27.447Z,18.95
2019-03-08T06:41:27.439Z,19.02
2019-03-08T06:42:27.430Z,18.92
2019-03-08T06:43:27.522Z,18.86
2019-03-08T06:44:27.414Z,18.91
2019-03-08T06:45:27.398Z,18.97
2019-03-08T06:46:27.390Z,18.87
2019-03-08T06:47:27.376Z,18.80
2019-03-08T06:48:27.366Z,18.67
2019-03-08T06:49:27.403Z,18.58
2019-03-08T06:50:27.366Z,18.47
2019-03-08T06:51:27.339Z,18.05
2019-03-08T06:52:27.324Z,17.96
2019-03-08T06:53:27.321Z,17.93
2019-03-08T06:54:27.302Z,17.96
2019-03-08T06:55:27.442Z,17.94
2019-03-08T06:56:27.277Z,17.87
2019-03-08T06:57:27.270Z,17.87
2019-03-08T06:58:27.265Z,18.01
2019-03-08T06:59:27.264Z,18.14
2019-03-08T07:00:27.238Z,18.23
2019-03-08T07:01:27.276Z,18.18
2019-03-08T07:02:27.215Z,18.28
2019-03-08T07:03:27.206Z,18.33
2019-03-08T07:04:27.191Z,18.33
2019-03-08T07:05:27.183Z,18.37
2019-03-08T07:06:27.175Z,18.30
2019-03-08T07:07:27.221Z,18.43
2019-03-08T07:08:27.149Z,18.36
2019-03-08T07:09:27.142Z,18.47
2019-03-08T07:10:27.130Z,18.40
2019-03-08T07:11:27.117Z,18.39
2019-03-08T07:12:27.112Z,18.33
2019-03-08T07:13:28.094Z,18.36
2019-03-08T07:14:27.088Z,18.36
2019-03-08T07:15:27.077Z,18.34
2019-03-08T07:16:27.068Z,18.42
2019-03-08T07:17:27.049Z,18.40
2019-03-08T07:18:27.048Z,18.47
2019-03-08T07:19:27.134Z,18.64
2019-03-08T07:20:27.024Z,18.99
2019-03-08T07:21:27.004Z,19.01
2019-03-08T07:22:26.998Z,18.91
2019-03-08T07:23:28.118Z,18.59
2019-03-08T07:24:26.976Z,18.39
2019-03-08T07:25:27.017Z,18.20
2019-03-08T07:26:26.954Z,18.11
2019-03-08T07:27:26.944Z,18.44
2019-03-08T07:28:26.936Z,18.79
2019-03-08T07:29:26.917Z,19.14
2019-03-08T07:30:26.907Z,19.37
2019-03-08T07:31:27.109Z,19.67
2019-03-08T07:32:26.894Z,19.91
2019-03-08T07:33:26.896Z,20.00
2019-03-08T07:34:26.869Z,20.06
2019-03-08T07:35:26.856Z,20.25
2019-03-08T07:36:26.860Z,20.39
2019-03-08T07:37:26.934Z,20.57
2019-03-08T07:38:26.827Z,20.78
2019-03-08T07:39:26.812Z,20.94
2019-03-08T07:40:26.800Z,21.15
2019-03-08T07:41:28.765Z,21.20
2019-03-08T07:42:26.780Z,21.32
2019-03-08T07:43:26.817Z,21.38
2019-03-08T07:44:26.776Z,21.35
2019-03-08T07:45:26.749Z,21.36
2019-03-08T07:46:26.744Z,21.29
2019-03-08T07:47:26.725Z,21.36
2019-03-08T07:48:26.715Z,21.19
2019-03-08T07:49:26.861Z,20.92
2019-03-08T07:50:26.693Z,20.49
2019-03-08T07:51:26.682Z,20.00
2019-03-08T07:52:26.668Z,19.65
2019-03-08T07:53:26.658Z,19.49
2019-03-08T07:54:26.652Z,19.34
2019-03-08T07:55:26.688Z,19.10
2019-03-08T07:56:26.626Z,18.99
2019-03-08T07:57:26.615Z,18.94
2019-03-08T07:58:26.603Z,19.01
2019-03-08T07:59:26.591Z,19.32
2019-03-08T08:00:26.583Z,19.64
2019-03-08T08:01:26.622Z,19.86
2019-03-08T08:02:27.781Z,20.20
2019-03-08T08:03:26.551Z,20.41
2019-03-08T08:04:26.538Z,20.50
2019-03-08T08:05:26.528Z,20.60
2019-03-08T08:06:26.518Z,20.63
2019-03-08T08:07:26.656Z,20.78
2019-03-08T08:08:26.496Z,20.86
2019-03-08T08:09:26.487Z,20.98
2019-03-08T08:10:26.477Z,21.13
2019-03-08T08:11:26.459Z,21.20
2019-03-08T08:12:26.451Z,21.23
2019-03-08T08:13:26.543Z,21.12
2019-03-08T08:14:26.423Z,20.82
2019-03-08T08:15:26.422Z,20.75
2019-03-08T08:16:26.412Z,20.43
2019-03-08T08:17:26.414Z,20.18
2019-03-08T08:18:26.483Z,20.15
2019-03-08T08:19:26.369Z,20.12
2019-03-08T08:20:26.365Z,19.93
2019-03-08T08:21:26.353Z,19.83
2019-03-08T08:22:26.341Z,19.71
2019-03-08T08:23:34.091Z,19.75
2019-03-08T08:24:51.185Z,19.80
2019-03-08T08:25:51.178Z,19.75
2019-03-08T08:26:51.168Z,19.90
2019-03-08T08:27:51.155Z,19.86
2019-03-08T08:28:51.146Z,19.86
2019-03-08T08:29:51.329Z,19.78
2019-03-08T08:30:51.118Z,19.86
2019-03-08T08:31:51.108Z,19.84
2019-03-08T08:32:51.112Z,19.84
2019-03-08T08:33:51.091Z,19.76
2019-03-08T08:34:51.083Z,19.78
2019-03-08T08:35:51.120Z,19.79
2019-03-08T08:36:51.061Z,19.80
2019-03-08T08:37:51.047Z,19.87
2019-03-08T08:38:51.032Z,19.90
2019-03-08T08:39:51.027Z,20.00
2019-03-08T08:40:51.015Z,20.10
2019-03-08T08:41:51.106Z,20.30
2019-03-08T08:42:50.996Z,20.39
2019-03-08T08:43:50.984Z,20.38
2019-03-08T08:44:52.997Z,20.55
2019-03-08T08:45:50.964Z,20.55
2019-03-08T08:46:50.947Z,20.63
2019-03-08T08:47:51.090Z,20.73
2019-03-08T08:48:50.932Z,20.82
2019-03-08T08:49:54.521Z,20.80
2019-03-08T08:50:50.911Z,20.82
2019-03-08T08:51:50.903Z,20.78
2019-03-08T08:52:50.887Z,20.65
2019-03-08T08:53:50.976Z,20.71
2019-03-08T08:54:50.865Z,20.73
2019-03-08T08:55:50.860Z,20.60
2019-03-08T08:56:50.844Z,20.58
2019-03-08T08:57:50.848Z,20.45
2019-03-08T08:58:50.823Z,20.42
2019-03-08T08:59:50.864Z,20.30
2019-03-08T09:00:50.805Z,20.23
2019-03-08T09:01:50.788Z,20.10
2019-03-08T09:02:50.781Z,20.13
2019-03-08T09:03:50.772Z,20.21
2019-03-08T09:04:50.762Z,20.23
2019-03-08T09:05:50.950Z,20.25
2019-03-08T09:06:50.734Z,20.25
2019-03-08T09:07:50.759Z,20.30
2019-03-08T09:08:50.719Z,20.23
2019-03-08T09:09:50.705Z,20.16
2019-03-08T09:10:50.698Z,20.03
2019-03-08T09:11:52.901Z,20.03
2019-03-08T09:12:50.675Z,19.98
2019-03-08T09:13:50.664Z,20.03
2019-03-08T09:14:50.659Z,19.97
2019-03-08T09:15:50.645Z,20.02
2019-03-08T09:16:50.634Z,19.91
2019-03-08T09:17:50.679Z,19.98
2019-03-08T09:18:50.616Z,20.13
2019-03-08T09:19:50.604Z,20.08
2019-03-08T09:20:50.594Z,20.15
2019-03-08T09:21:50.582Z,20.28
2019-03-08T09:22:50.577Z,20.43
2019-03-08T09:23:50.718Z,20.46
2019-03-08T09:24:50.554Z,20.45
2019-03-08T09:25:50.544Z,20.42
2019-03-08T09:26:50.530Z,20.30
2019-03-08T09:27:50.517Z,20.20
2019-03-08T09:28:50.508Z,19.95
2019-03-08T09:29:50.598Z,19.83
2019-03-08T09:30:50.503Z,19.80
2019-03-08T09:31:50.477Z,19.79
2019-03-08T09:32:58.921Z,19.72
2019-03-08T09:33:51.545Z,19.59
2019-03-08T09:34:50.441Z,19.42
2019-03-08T09:35:50.537Z,19.32
2019-03-08T09:36:50.427Z,19.39
2019-03-08T09:37:50.419Z,19.37
2019-03-08T09:38:50.407Z,19.32
2019-03-08T09:39:50.395Z,19.32
2019-03-08T09:40:50.384Z,19.35
2019-03-08T09:41:50.521Z,19.16
2019-03-08T09:42:50.363Z,19.12
2019-03-08T09:43:50.352Z,19.20
2019-03-08T09:44:50.339Z,19.13
2019-03-08T09:45:50.330Z,19.12
2019-03-08T09:46:50.320Z,19.20
2019-03-08T09:47:50.408Z,19.12
2019-03-08T09:48:50.295Z,19.10
2019-03-08T09:49:50.288Z,19.02
2019-03-08T09:50:50.278Z,19.02
2019-03-08T09:51:50.263Z,18.99
2019-03-08T09:52:50.251Z,18.91
2019-03-08T09:53:50.344Z,18.76
2019-03-08T09:54:50.233Z,18.77
2019-03-08T09:55:50.220Z,18.73
2019-03-08T09:56:50.210Z,18.79
2019-03-08T09:57:52.105Z,18.73
2019-03-08T09:58:50.188Z,18.76
2019-03-08T09:59:50.331Z,18.67
2019-03-08T10:00:50.167Z,18.68
2019-03-08T10:01:50.158Z,18.70
2019-03-08T10:02:50.144Z,18.57
2019-03-08T10:03:50.140Z,18.65
2019-03-08T10:04:50.127Z,18.58
2019-03-08T10:05:50.166Z,18.65
2019-03-08T10:06:50.105Z,18.59
2019-03-08T10:07:50.096Z,18.58
2019-03-08T10:08:50.086Z,18.57
2019-03-08T10:09:50.073Z,18.54
2019-03-08T10:10:50.062Z,18.54
2019-03-08T10:11:50.099Z,18.87
2019-03-08T10:12:50.042Z,19.28
2019-03-08T10:13:50.028Z,19.59
2019-03-08T10:14:50.026Z,19.86
2019-03-08T10:15:50.010Z,20.13
2019-03-08T10:16:49.997Z,20.43
2019-03-08T10:17:50.138Z,20.46
2019-03-08T10:18:49.975Z,20.67
2019-03-08T10:19:49.966Z,20.83
2019-03-08T10:20:49.959Z,20.85
2019-03-08T10:21:49.945Z,20.92
2019-03-08T10:22:49.936Z,21.15
2019-03-08T10:23:49.975Z,21.20
2019-03-08T10:24:49.914Z,21.26
2019-03-08T10:25:49.908Z,21.36
2019-03-08T10:26:49.894Z,21.27
2019-03-08T10:27:49.884Z,21.36
2019-03-08T10:28:49.875Z,21.41
2019-03-08T10:29:49.907Z,21.44
2019-03-08T10:30:49.851Z,21.44
2019-03-08T10:31:49.841Z,21.50
2019-03-08T10:32:49.828Z,21.38
2019-03-08T10:33:49.821Z,21.41
2019-03-08T10:34:49.858Z,21.39
2019-03-08T10:35:49.804Z,21.39
2019-03-08T10:36:49.787Z,21.36
2019-03-08T10:37:49.779Z,21.34
2019-03-08T10:38:49.767Z,21.38
2019-03-08T10:39:49.757Z,21.39
2019-03-08T10:40:49.804Z,21.42
2019-03-08T10:41:49.734Z,21.39
2019-03-08T10:42:49.741Z,21.45
2019-03-08T10:43:49.712Z,21.45
2019-03-08T10:44:49.704Z,21.44
2019-03-08T10:45:49.895Z,21.44
2019-03-08T10:46:49.679Z,21.53
2019-03-08T10:47:56.031Z,21.50
2019-03-08T10:49:14.477Z,21.57
2019-03-08T10:50:14.463Z,21.57
2019-03-08T10:51:14.504Z,21.56
2019-03-08T10:52:17.731Z,21.46
2019-03-08T10:53:14.505Z,21.42
2019-03-08T10:54:14.499Z,21.35
2019-03-08T10:55:14.493Z,21.36
2019-03-08T10:56:14.465Z,21.36
2019-03-08T10:58:14.548Z,21.34
2019-03-08T10:59:14.450Z,21.27
2019-03-08T11:00:14.444Z,21.23
2019-03-08T11:01:14.430Z,21.26
2019-03-08T11:02:14.423Z,21.34
2019-03-08T11:03:14.412Z,21.15
2019-03-08T11:04:14.930Z,21.24
2019-03-08T11:05:14.332Z,21.19
2019-03-08T11:06:14.316Z,21.26
2019-03-08T11:07:14.316Z,21.17
2019-03-08T11:08:14.273Z,21.20
2019-03-08T11:09:14.261Z,21.05
2019-03-08T18:39:09.533Z,16.79
2019-03-08T18:40:09.476Z,16.85
2019-03-08T18:41:09.511Z,17.00
2019-03-08T18:42:09.454Z,16.90
2019-03-08T18:43:09.445Z,16.87
2019-03-08T18:44:09.432Z,16.99
2019-03-08T18:45:50.052Z,16.95
2019-03-08T18:46:09.559Z,16.98
2019-03-08T18:47:09.394Z,17.13
2019-03-08T18:48:09.386Z,17.04
2019-03-08T18:49:09.429Z,17.18
2019-03-08T18:50:09.358Z,17.17
2019-03-08T18:51:09.353Z,17.32
2019-03-08T18:52:11.545Z,17.10
2019-03-08T18:53:09.381Z,16.39
2019-03-08T18:54:09.332Z,15.48
2019-03-08T18:55:09.317Z,14.89
2019-03-08T18:56:09.313Z,13.94
2019-03-08T18:57:09.329Z,13.09
2019-03-08T18:58:09.330Z,12.40
2019-03-08T18:59:09.267Z,11.95
2019-03-08T19:00:09.305Z,11.57
2019-03-08T19:01:09.251Z,11.32
2019-03-08T19:03:09.228Z,10.97
2019-03-08T19:21:09.037Z,11.53
2019-03-08T19:22:09.025Z,11.41
2019-03-08T19:23:09.069Z,11.25
2019-03-08T19:25:08.998Z,10.76
2019-03-08T19:26:09.033Z,10.64
2019-03-08T19:27:08.972Z,10.57
2019-03-08T19:28:09.080Z,10.46
2019-03-08T19:29:09.034Z,10.34
2019-03-08T19:30:09.030Z,10.24
2019-03-08T19:31:09.018Z,10.22
2019-03-08T19:32:09.009Z,10.19
2019-03-08T19:33:09.043Z,10.06
2019-03-08T19:34:08.984Z,10.00
2019-03-08T19:35:08.977Z,10.22
2019-03-08T19:36:08.961Z,10.55
2019-03-08T19:37:08.952Z,11.02
2019-03-08T19:38:09.396Z,10.90
2019-03-08T19:39:08.932Z,11.01
2019-03-08T19:40:08.921Z,10.72
2019-03-08T19:41:08.915Z,10.44
2019-03-08T19:42:08.959Z,10.21
2019-03-08T19:43:08.891Z,10.17
2019-03-08T19:44:08.922Z,10.10
2019-03-08T19:45:08.917Z,10.10
2019-03-08T19:46:08.859Z,10.07
2019-03-08T19:47:08.844Z,10.10
2019-03-08T19:48:08.842Z,9.99
2019-03-08T19:49:08.868Z,10.00
2019-03-08T19:50:08.821Z,10.25
2019-03-08T19:51:08.802Z,10.26
2019-03-08T19:52:08.799Z,10.22
2019-03-08T19:53:08.783Z,10.09
2019-03-08T19:54:09.270Z,9.88
2019-03-08T19:55:08.762Z,9.67
2019-03-08T19:56:08.741Z,9.83
2019-03-08T19:57:08.789Z,9.70
2019-03-08T19:58:08.737Z,9.42
2019-03-08T19:59:08.717Z,9.39
2019-03-08T20:00:08.723Z,9.22
2019-03-08T20:01:08.751Z,9.41
2019-03-08T20:03:08.675Z,9.22
2019-03-08T20:04:08.666Z,9.20
2019-03-08T20:05:08.761Z,9.65
2019-03-08T20:06:08.649Z,10.93
2019-03-08T20:07:08.637Z,10.76
2019-03-08T20:08:08.627Z,10.80
2019-03-08T20:09:08.611Z,11.12
2019-03-08T20:10:09.201Z,11.43
2019-03-08T20:11:08.640Z,11.90
2019-03-08T20:12:08.637Z,12.56
2019-03-08T20:13:08.572Z,13.54
2019-03-08T20:14:08.563Z,14.38
2019-03-08T20:15:08.557Z,14.77
2019-03-08T20:16:08.546Z,14.65
2019-03-08T20:17:08.583Z,14.13
2019-03-08T20:18:08.526Z,13.62
2019-03-08T20:19:08.515Z,13.04
2019-03-08T20:20:08.498Z,12.63
2019-03-08T20:21:08.539Z,12.28
2019-03-08T20:34:33.171Z,11.78
2019-03-08T21:17:32.707Z,8.94
2019-03-08T21:18:33.145Z,8.99
2019-03-08T21:19:32.689Z,9.24
2019-03-08T21:20:32.691Z,9.47
2019-03-08T21:21:32.769Z,9.14
2019-03-08T21:22:32.660Z,9.67
2019-03-08T21:23:32.645Z,9.26
2019-03-08T21:24:32.637Z,8.94
2019-03-08T21:25:32.624Z,8.69
2019-03-08T21:26:32.662Z,8.01
2019-03-08T21:27:32.605Z,7.99
2019-03-08T21:28:32.643Z,8.06
2019-03-08T21:29:32.584Z,9.06
2019-03-08T21:30:32.576Z,9.39
2019-03-08T21:31:32.564Z,9.72
2019-03-08T21:36:32.503Z,12.48
2019-03-08T21:37:32.499Z,12.87
2019-03-08T21:38:32.986Z,13.68
2019-03-08T21:40:32.462Z,14.10
2019-03-08T21:41:32.454Z,14.54
2019-03-08T21:42:32.439Z,14.52
2019-03-08T21:43:32.485Z,14.49
2019-03-08T21:44:32.467Z,14.61